sensor_id;sensor_type;location;lat;lon;timestamp;P1;durP1;ratioP1;P2;durP2;ratioP2
16033;SDS011;8121;51.418;6.998;2023-08-12T00:04:09;17.63;;;10.37;;
16033;SDS011;8121;51.418;6.998;2023-08-12T00:09:16;8.13;;;7.07;;
16033;SDS011;8121;51.418;6.998;2023-08-12T00:14:18;9.23;;;7.00;;
16033;SDS011;8121;51.418;6.998;2023-08-12T00:19:19;9.70;;;6.93;;
16033;SDS011;8121;51.418;6.998;2023-08-12T00:24:22;12.43;;;9.83;;
16033;SDS011;8121;51.418;6.998;2023-08-12T00:29:23;9.23;;;7.23;;
16033;SDS011;8121;51.418;6.998;2023-08-12T00:34:25;8.93;;;6.70;;
16033;SDS011;8121;51.418;6.998;2023-08-12T00:39:28;10.60;;;8.63;;
16033;SDS011;8121;51.418;6.998;2023-08-12T00:44:29;10.57;;;6.63;;
16033;SDS011;8121;51.418;6.998;2023-08-12T00:49:31;8.07;;;5.67;;
16033;SDS011;8121;51.418;6.998;2023-08-12T00:54:34;11.20;;;7.20;;
16033;SDS011;8121;51.418;6.998;2023-08-12T00:59:35;14.53;;;8.57;;
16033;SDS011;8121;51.418;6.998;2023-08-12T01:04:38;8.23;;;6.37;;
16033;SDS011;8121;51.418;6.998;2023-08-12T01:09:40;11.10;;;7.60;;
16033;SDS011;8121;51.418;6.998;2023-08-12T01:14:44;9.40;;;7.60;;
16033;SDS011;8121;51.418;6.998;2023-08-12T01:19:46;11.93;;;8.27;;
16033;SDS011;8121;51.418;6.998;2023-08-12T01:24:50;14.90;;;8.50;;
16033;SDS011;8121;51.418;6.998;2023-08-12T01:29:52;8.97;;;7.10;;
16033;SDS011;8121;51.418;6.998;2023-08-12T01:34:55;8.80;;;6.10;;
16033;SDS011;8121;51.418;6.998;2023-08-12T01:40:02;8.70;;;6.33;;
16033;SDS011;8121;51.418;6.998;2023-08-12T01:45:05;11.77;;;6.87;;
16033;SDS011;8121;51.418;6.998;2023-08-12T01:50:07;10.93;;;6.97;;
16033;SDS011;8121;51.418;6.998;2023-08-12T01:55:11;12.30;;;8.50;;
16033;SDS011;8121;51.418;6.998;2023-08-12T02:00:12;18.47;;;9.10;;
16033;SDS011;8121;51.418;6.998;2023-08-12T02:05:14;8.93;;;6.73;;
16033;SDS011;8121;51.418;6.998;2023-08-12T02:10:17;8.87;;;5.37;;
16033;SDS011;8121;51.418;6.998;2023-08-12T02:15:19;11.33;;;6.90;;
16033;SDS011;8121;51.418;6.998;2023-08-12T02:20:20;8.70;;;5.83;;
16033;SDS011;8121;51.418;6.998;2023-08-12T02:25:23;8.83;;;5.80;;
16033;SDS011;8121;51.418;6.998;2023-08-12T02:30:24;8.60;;;7.37;;
16033;SDS011;8121;51.418;6.998;2023-08-12T02:35:26;8.00;;;6.20;;
16033;SDS011;8121;51.418;6.998;2023-08-12T02:40:29;6.70;;;5.83;;
16033;SDS011;8121;51.418;6.998;2023-08-12T02:45:30;8.63;;;6.37;;
16033;SDS011;8121;51.418;6.998;2023-08-12T02:50:33;9.83;;;6.30;;
16033;SDS011;8121;51.418;6.998;2023-08-12T02:55:36;16.43;;;8.10;;
16033;SDS011;8121;51.418;6.998;2023-08-12T03:00:40;7.33;;;6.10;;
16033;SDS011;8121;51.418;6.998;2023-08-12T03:05:44;17.50;;;8.70;;
16033;SDS011;8121;51.418;6.998;2023-08-12T03:10:48;5.40;;;4.90;;
16033;SDS011;8121;51.418;6.998;2023-08-12T03:15:50;4.30;;;3.23;;
16033;SDS011;8121;51.418;6.998;2023-08-12T03:20:51;8.83;;;5.90;;
16033;SDS011;8121;51.418;6.998;2023-08-12T03:25:54;5.10;;;4.30;;
16033;SDS011;8121;51.418;6.998;2023-08-12T03:30:56;9.63;;;4.90;;
16033;SDS011;8121;51.418;6.998;2023-08-12T03:35:57;7.20;;;4.53;;
16033;SDS011;8121;51.418;6.998;2023-08-12T03:41:00;4.10;;;3.70;;
16033;SDS011;8121;51.418;6.998;2023-08-12T03:46:02;7.03;;;5.60;;
16033;SDS011;8121;51.418;6.998;2023-08-12T03:51:03;4.27;;;3.80;;
16033;SDS011;8121;51.418;6.998;2023-08-12T03:56:06;4.17;;;3.77;;
16033;SDS011;8121;51.418;6.998;2023-08-12T04:01:08;7.90;;;4.20;;
16033;SDS011;8121;51.418;6.998;2023-08-12T04:06:09;6.83;;;4.07;;
16033;SDS011;8121;51.418;6.998;2023-08-12T04:11:12;4.83;;;3.40;;
16033;SDS011;8121;51.418;6.998;2023-08-12T04:16:13;7.23;;;4.03;;
16033;SDS011;8121;51.418;6.998;2023-08-12T04:21:15;4.30;;;3.90;;
16033;SDS011;8121;51.418;6.998;2023-08-12T04:26:18;10.53;;;6.47;;
16033;SDS011;8121;51.418;6.998;2023-08-12T04:31:19;4.80;;;4.03;;
16033;SDS011;8121;51.418;6.998;2023-08-12T04:36:21;6.80;;;4.23;;
16033;SDS011;8121;51.418;6.998;2023-08-12T04:41:23;5.87;;;4.20;;
16033;SDS011;8121;51.418;6.998;2023-08-12T04:46:25;4.10;;;3.60;;
16033;SDS011;8121;51.418;6.998;2023-08-12T04:51:27;5.00;;;4.30;;
16033;SDS011;8121;51.418;6.998;2023-08-12T04:56:30;5.40;;;4.60;;
16033;SDS011;8121;51.418;6.998;2023-08-12T05:01:31;4.23;;;3.50;;
16033;SDS011;8121;51.418;6.998;2023-08-12T05:06:33;3.77;;;3.40;;
16033;SDS011;8121;51.418;6.998;2023-08-12T05:11:36;4.00;;;3.33;;
16033;SDS011;8121;51.418;6.998;2023-08-12T05:16:37;5.27;;;4.23;;
16033;SDS011;8121;51.418;6.998;2023-08-12T05:21:39;4.80;;;3.30;;
16033;SDS011;8121;51.418;6.998;2023-08-12T05:26:42;4.20;;;3.20;;
16033;SDS011;8121;51.418;6.998;2023-08-12T05:31:44;4.40;;;3.50;;
16033;SDS011;8121;51.418;6.998;2023-08-12T05:36:45;5.97;;;3.63;;
16033;SDS011;8121;51.418;6.998;2023-08-12T05:41:48;3.20;;;3.00;;
16033;SDS011;8121;51.418;6.998;2023-08-12T05:46:51;6.83;;;4.30;;
16033;SDS011;8121;51.418;6.998;2023-08-12T05:51:52;3.77;;;3.50;;
16033;SDS011;8121;51.418;6.998;2023-08-12T05:56:55;2.90;;;2.60;;
16033;SDS011;8121;51.418;6.998;2023-08-12T06:01:56;6.90;;;3.97;;
16033;SDS011;8121;51.418;6.998;2023-08-12T06:06:58;7.90;;;4.83;;
16033;SDS011;8121;51.418;6.998;2023-08-12T06:12:01;3.77;;;2.63;;
16033;SDS011;8121;51.418;6.998;2023-08-12T06:17:02;3.20;;;3.00;;
16033;SDS011;8121;51.418;6.998;2023-08-12T06:22:04;3.47;;;3.17;;
16033;SDS011;8121;51.418;6.998;2023-08-12T06:27:07;5.33;;;3.40;;
16033;SDS011;8121;51.418;6.998;2023-08-12T06:32:08;3.40;;;2.70;;
16033;SDS011;8121;51.418;6.998;2023-08-12T06:37:12;3.13;;;2.93;;
16033;SDS011;8121;51.418;6.998;2023-08-12T06:42:15;4.57;;;2.33;;
16033;SDS011;8121;51.418;6.998;2023-08-12T06:47:17;3.60;;;3.13;;
16033;SDS011;8121;51.418;6.998;2023-08-12T06:52:18;3.50;;;3.20;;
16033;SDS011;8121;51.418;6.998;2023-08-12T06:57:21;3.10;;;2.60;;
16033;SDS011;8121;51.418;6.998;2023-08-12T07:02:22;4.27;;;2.23;;
16033;SDS011;8121;51.418;6.998;2023-08-12T07:07:24;7.63;;;3.33;;
16033;SDS011;8121;51.418;6.998;2023-08-12T07:12:27;2.67;;;2.47;;
16033;SDS011;8121;51.418;6.998;2023-08-12T07:17:28;4.37;;;2.43;;
16033;SDS011;8121;51.418;6.998;2023-08-12T07:22:29;3.00;;;2.70;;
16033;SDS011;8121;51.418;6.998;2023-08-12T07:27:32;2.10;;;1.90;;
16033;SDS011;8121;51.418;6.998;2023-08-12T07:32:34;2.07;;;1.97;;
16033;SDS011;8121;51.418;6.998;2023-08-12T07:37:37;9.97;;;2.70;;
16033;SDS011;8121;51.418;6.998;2023-08-12T07:42:40;2.70;;;2.50;;
16033;SDS011;8121;51.418;6.998;2023-08-12T07:47:41;3.13;;;2.93;;
16033;SDS011;8121;51.418;6.998;2023-08-12T07:52:43;2.60;;;2.40;;
16033;SDS011;8121;51.418;6.998;2023-08-12T07:57:46;2.10;;;1.90;;
16033;SDS011;8121;51.418;6.998;2023-08-12T08:02:48;2.67;;;2.10;;
16033;SDS011;8121;51.418;6.998;2023-08-12T08:07:49;4.17;;;2.40;;
16033;SDS011;8121;51.418;6.998;2023-08-12T08:12:52;2.63;;;2.43;;
16033;SDS011;8121;51.418;6.998;2023-08-12T08:17:53;3.47;;;3.20;;
16033;SDS011;8121;51.418;6.998;2023-08-12T08:22:55;4.20;;;3.27;;
16033;SDS011;8121;51.418;6.998;2023-08-12T08:27:57;3.33;;;3.13;;
16033;SDS011;8121;51.418;6.998;2023-08-12T08:32:59;3.50;;;3.20;;
16033;SDS011;8121;51.418;6.998;2023-08-12T08:38:01;2.33;;;2.17;;
16033;SDS011;8121;51.418;6.998;2023-08-12T08:43:04;2.40;;;2.20;;
16033;SDS011;8121;51.418;6.998;2023-08-12T08:48:06;3.20;;;2.77;;
16033;SDS011;8121;51.418;6.998;2023-08-12T08:53:08;2.60;;;2.40;;
16033;SDS011;8121;51.418;6.998;2023-08-12T08:58:11;2.53;;;2.37;;
16033;SDS011;8121;51.418;6.998;2023-08-12T09:03:13;2.43;;;2.30;;
16033;SDS011;8121;51.418;6.998;2023-08-12T09:08:15;2.73;;;2.63;;
16033;SDS011;8121;51.418;6.998;2023-08-12T09:13:18;2.17;;;2.07;;
16033;SDS011;8121;51.418;6.998;2023-08-12T09:18:20;2.50;;;2.30;;
16033;SDS011;8121;51.418;6.998;2023-08-12T09:23:25;2.27;;;2.07;;
16033;SDS011;8121;51.418;6.998;2023-08-12T09:28:29;2.40;;;2.20;;
16033;SDS011;8121;51.418;6.998;2023-08-12T09:33:30;1.60;;;1.50;;
16033;SDS011;8121;51.418;6.998;2023-08-12T09:38:32;1.80;;;1.70;;
16033;SDS011;8121;51.418;6.998;2023-08-12T09:43:35;3.87;;;2.13;;
16033;SDS011;8121;51.418;6.998;2023-08-12T09:48:41;2.30;;;1.80;;
16033;SDS011;8121;51.418;6.998;2023-08-12T09:53:43;3.40;;;2.10;;
16033;SDS011;8121;51.418;6.998;2023-08-12T09:58:48;2.20;;;2.10;;
16033;SDS011;8121;51.418;6.998;2023-08-12T10:03:50;1.57;;;1.47;;
16033;SDS011;8121;51.418;6.998;2023-08-12T10:08:52;1.70;;;1.43;;
16033;SDS011;8121;51.418;6.998;2023-08-12T10:13:55;2.50;;;1.50;;
16033;SDS011;8121;51.418;6.998;2023-08-12T10:18:57;1.53;;;1.43;;
16033;SDS011;8121;51.418;6.998;2023-08-12T10:23:59;2.60;;;2.40;;
16033;SDS011;8121;51.418;6.998;2023-08-12T10:34:59;1.83;;;1.43;;
16033;SDS011;8121;51.418;6.998;2023-08-12T10:45:43;1.10;;;1.00;;
16033;SDS011;8121;51.418;6.998;2023-08-12T10:50:49;1.87;;;1.27;;
16033;SDS011;8121;51.418;6.998;2023-08-12T10:55:54;1.60;;;1.50;;
16033;SDS011;8121;51.418;6.998;2023-08-12T11:00:57;1.40;;;1.23;;
16033;SDS011;8121;51.418;6.998;2023-08-12T11:06:00;0.70;;;0.67;;
16033;SDS011;8121;51.418;6.998;2023-08-12T11:11:03;1.10;;;1.00;;
16033;SDS011;8121;51.418;6.998;2023-08-12T11:16:20;2.30;;;0.70;;
16033;SDS011;8121;51.418;6.998;2023-08-12T11:21:33;2.00;;;0.80;;
16033;SDS011;8121;51.418;6.998;2023-08-12T11:26:37;2.83;;;1.10;;
16033;SDS011;8121;51.418;6.998;2023-08-12T11:31:38;0.80;;;0.73;;
16033;SDS011;8121;51.418;6.998;2023-08-12T11:36:41;0.70;;;0.60;;
16033;SDS011;8121;51.418;6.998;2023-08-12T11:41:43;0.80;;;0.80;;
16033;SDS011;8121;51.418;6.998;2023-08-12T11:46:44;1.53;;;0.80;;
16033;SDS011;8121;51.418;6.998;2023-08-12T11:51:47;1.43;;;0.70;;
16033;SDS011;8121;51.418;6.998;2023-08-12T11:56:50;0.87;;;0.60;;
16033;SDS011;8121;51.418;6.998;2023-08-12T12:01:51;1.00;;;0.60;;
16033;SDS011;8121;51.418;6.998;2023-08-12T12:06:54;0.70;;;0.67;;
16033;SDS011;8121;51.418;6.998;2023-08-12T12:11:55;1.70;;;0.60;;
16033;SDS011;8121;51.418;6.998;2023-08-12T12:16:57;0.80;;;0.50;;
16033;SDS011;8121;51.418;6.998;2023-08-12T12:22:01;0.70;;;0.70;;
16033;SDS011;8121;51.418;6.998;2023-08-12T12:27:04;0.70;;;0.70;;
16033;SDS011;8121;51.418;6.998;2023-08-12T12:32:05;4.40;;;1.40;;
16033;SDS011;8121;51.418;6.998;2023-08-12T12:37:08;1.00;;;0.90;;
16033;SDS011;8121;51.418;6.998;2023-08-12T12:42:10;1.00;;;1.00;;
16033;SDS011;8121;51.418;6.998;2023-08-12T12:47:12;1.70;;;1.60;;
16033;SDS011;8121;51.418;6.998;2023-08-12T12:52:15;3.27;;;2.07;;
16033;SDS011;8121;51.418;6.998;2023-08-12T12:57:16;1.53;;;1.43;;
16033;SDS011;8121;51.418;6.998;2023-08-12T13:02:18;1.70;;;1.60;;
16033;SDS011;8121;51.418;6.998;2023-08-12T13:07:20;1.80;;;1.70;;
16033;SDS011;8121;51.418;6.998;2023-08-12T13:12:22;2.53;;;2.40;;
16033;SDS011;8121;51.418;6.998;2023-08-12T13:17:24;1.63;;;1.53;;
16033;SDS011;8121;51.418;6.998;2023-08-12T13:22:27;4.40;;;4.00;;
16033;SDS011;8121;51.418;6.998;2023-08-12T13:27:28;3.53;;;3.23;;
16033;SDS011;8121;51.418;6.998;2023-08-12T13:32:30;7.20;;;5.50;;
16033;SDS011;8121;51.418;6.998;2023-08-12T13:37:33;7.87;;;6.00;;
16033;SDS011;8121;51.418;6.998;2023-08-12T13:42:34;4.77;;;4.47;;
16033;SDS011;8121;51.418;6.998;2023-08-12T13:47:36;5.93;;;5.33;;
16033;SDS011;8121;51.418;6.998;2023-08-12T13:52:39;3.90;;;3.60;;
16033;SDS011;8121;51.418;6.998;2023-08-12T13:57:40;2.97;;;2.77;;
16033;SDS011;8121;51.418;6.998;2023-08-12T14:02:41;2.27;;;2.07;;
16033;SDS011;8121;51.418;6.998;2023-08-12T14:07:44;1.70;;;1.60;;
16033;SDS011;8121;51.418;6.998;2023-08-12T14:12:46;3.40;;;2.27;;
16033;SDS011;8121;51.418;6.998;2023-08-12T14:17:49;2.87;;;1.97;;
16033;SDS011;8121;51.418;6.998;2023-08-12T14:22:51;2.30;;;2.10;;
16033;SDS011;8121;51.418;6.998;2023-08-12T14:27:53;3.43;;;2.33;;
16033;SDS011;8121;51.418;6.998;2023-08-12T14:32:54;2.30;;;2.13;;
16033;SDS011;8121;51.418;6.998;2023-08-12T14:37:57;5.40;;;4.30;;
16033;SDS011;8121;51.418;6.998;2023-08-12T14:42:59;7.87;;;4.03;;
16033;SDS011;8121;51.418;6.998;2023-08-12T14:48:00;3.10;;;2.90;;
16033;SDS011;8121;51.418;6.998;2023-08-12T14:53:03;4.10;;;3.53;;
16033;SDS011;8121;51.418;6.998;2023-08-12T14:58:05;3.10;;;2.80;;
16033;SDS011;8121;51.418;6.998;2023-08-12T15:03:06;3.57;;;3.37;;
16033;SDS011;8121;51.418;6.998;2023-08-12T15:08:11;4.87;;;3.00;;
16033;SDS011;8121;51.418;6.998;2023-08-12T15:13:13;3.07;;;2.77;;
16033;SDS011;8121;51.418;6.998;2023-08-12T15:18:14;1.80;;;1.70;;
16033;SDS011;8121;51.418;6.998;2023-08-12T15:23:17;3.20;;;3.00;;
16033;SDS011;8121;51.418;6.998;2023-08-12T15:28:18;2.53;;;2.33;;
16033;SDS011;8121;51.418;6.998;2023-08-12T15:33:20;2.20;;;2.03;;
16033;SDS011;8121;51.418;6.998;2023-08-12T15:38:23;2.87;;;2.67;;
16033;SDS011;8121;51.418;6.998;2023-08-12T15:43:25;2.10;;;2.00;;
16033;SDS011;8121;51.418;6.998;2023-08-12T15:48:26;2.10;;;1.90;;
16033;SDS011;8121;51.418;6.998;2023-08-12T15:53:29;1.90;;;1.80;;
16033;SDS011;8121;51.418;6.998;2023-08-12T15:58:31;3.57;;;2.60;;
16033;SDS011;8121;51.418;6.998;2023-08-12T16:03:32;2.07;;;1.87;;
16033;SDS011;8121;51.418;6.998;2023-08-12T16:08:35;2.70;;;1.67;;
16033;SDS011;8121;51.418;6.998;2023-08-12T16:13:37;3.17;;;2.20;;
16033;SDS011;8121;51.418;6.998;2023-08-12T16:18:38;5.30;;;1.73;;
16033;SDS011;8121;51.418;6.998;2023-08-12T16:23:41;3.87;;;1.83;;
16033;SDS011;8121;51.418;6.998;2023-08-12T16:28:42;3.00;;;1.57;;
16033;SDS011;8121;51.418;6.998;2023-08-12T16:33:44;2.67;;;1.30;;
16033;SDS011;8121;51.418;6.998;2023-08-12T16:38:47;3.00;;;1.67;;
16033;SDS011;8121;51.418;6.998;2023-08-12T16:43:48;4.00;;;1.67;;
16033;SDS011;8121;51.418;6.998;2023-08-12T16:48:50;2.73;;;1.67;;
16033;SDS011;8121;51.418;6.998;2023-08-12T16:53:53;1.83;;;1.50;;
16033;SDS011;8121;51.418;6.998;2023-08-12T16:58:55;4.07;;;1.90;;
16033;SDS011;8121;51.418;6.998;2023-08-12T17:03:56;2.63;;;2.00;;
16033;SDS011;8121;51.418;6.998;2023-08-12T17:09:04;1.03;;;1.00;;
16033;SDS011;8121;51.418;6.998;2023-08-12T17:14:09;1.97;;;1.30;;
16033;SDS011;8121;51.418;6.998;2023-08-12T17:19:11;3.53;;;1.70;;
16033;SDS011;8121;51.418;6.998;2023-08-12T17:24:14;5.50;;;1.30;;
16033;SDS011;8121;51.418;6.998;2023-08-12T17:29:16;2.00;;;1.33;;
16033;SDS011;8121;51.418;6.998;2023-08-12T17:34:17;1.63;;;1.20;;
16033;SDS011;8121;51.418;6.998;2023-08-12T17:39:21;3.57;;;2.30;;
16033;SDS011;8121;51.418;6.998;2023-08-12T17:44:23;2.57;;;1.60;;
16033;SDS011;8121;51.418;6.998;2023-08-12T17:49:25;4.33;;;1.43;;
16033;SDS011;8121;51.418;6.998;2023-08-12T17:54:28;3.43;;;1.33;;
16033;SDS011;8121;51.418;6.998;2023-08-12T17:59:31;1.47;;;1.33;;
16033;SDS011;8121;51.418;6.998;2023-08-12T18:04:32;1.83;;;1.10;;
16033;SDS011;8121;51.418;6.998;2023-08-12T18:09:35;1.30;;;1.17;;
16033;SDS011;8121;51.418;6.998;2023-08-12T18:14:37;5.47;;;1.87;;
16033;SDS011;8121;51.418;6.998;2023-08-12T18:19:38;1.17;;;1.07;;
16033;SDS011;8121;51.418;6.998;2023-08-12T18:24:41;3.63;;;2.40;;
16033;SDS011;8121;51.418;6.998;2023-08-12T18:29:43;1.33;;;1.23;;
16033;SDS011;8121;51.418;6.998;2023-08-12T18:34:44;3.53;;;1.03;;
16033;SDS011;8121;51.418;6.998;2023-08-12T18:39:47;1.80;;;1.70;;
16033;SDS011;8121;51.418;6.998;2023-08-12T18:44:49;1.53;;;1.43;;
16033;SDS011;8121;51.418;6.998;2023-08-12T18:49:50;2.20;;;1.20;;
16033;SDS011;8121;51.418;6.998;2023-08-12T18:54:53;2.10;;;1.43;;
16033;SDS011;8121;51.418;6.998;2023-08-12T18:59:55;7.10;;;1.60;;
16033;SDS011;8121;51.418;6.998;2023-08-12T19:04:56;1.40;;;1.30;;
16033;SDS011;8121;51.418;6.998;2023-08-12T19:09:59;2.60;;;1.40;;
16033;SDS011;8121;51.418;6.998;2023-08-12T19:15:01;1.50;;;1.40;;
16033;SDS011;8121;51.418;6.998;2023-08-12T19:20:03;2.60;;;2.00;;
16033;SDS011;8121;51.418;6.998;2023-08-12T19:25:06;1.53;;;1.40;;
16033;SDS011;8121;51.418;6.998;2023-08-12T19:30:09;1.23;;;1.13;;
16033;SDS011;8121;51.418;6.998;2023-08-12T19:35:12;2.23;;;1.20;;
16033;SDS011;8121;51.418;6.998;2023-08-12T19:40:15;1.33;;;1.23;;
16033;SDS011;8121;51.418;6.998;2023-08-12T19:45:17;2.70;;;1.10;;
16033;SDS011;8121;51.418;6.998;2023-08-12T19:50:19;1.27;;;1.17;;
16033;SDS011;8121;51.418;6.998;2023-08-12T19:55:22;1.57;;;1.10;;
16033;SDS011;8121;51.418;6.998;2023-08-12T20:00:24;6.43;;;1.30;;
16033;SDS011;8121;51.418;6.998;2023-08-12T20:05:25;1.63;;;1.17;;
16033;SDS011;8121;51.418;6.998;2023-08-12T20:10:29;1.63;;;1.07;;
16033;SDS011;8121;51.418;6.998;2023-08-12T20:15:31;0.90;;;0.80;;
16033;SDS011;8121;51.418;6.998;2023-08-12T20:20:33;1.30;;;1.20;;
16033;SDS011;8121;51.418;6.998;2023-08-12T20:25:35;2.10;;;1.77;;
16033;SDS011;8121;51.418;6.998;2023-08-12T20:30:37;2.83;;;1.57;;
16033;SDS011;8121;51.418;6.998;2023-08-12T20:35:38;1.17;;;0.97;;
16033;SDS011;8121;51.418;6.998;2023-08-12T20:40:41;4.70;;;1.20;;
16033;SDS011;8121;51.418;6.998;2023-08-12T20:45:43;1.53;;;1.10;;
16033;SDS011;8121;51.418;6.998;2023-08-12T20:50:44;2.03;;;1.37;;
16033;SDS011;8121;51.418;6.998;2023-08-12T20:55:47;5.60;;;1.53;;
16033;SDS011;8121;51.418;6.998;2023-08-12T21:00:50;0.90;;;0.90;;
16033;SDS011;8121;51.418;6.998;2023-08-12T21:05:52;1.23;;;1.13;;
16033;SDS011;8121;51.418;6.998;2023-08-12T21:10:55;1.10;;;1.00;;
16033;SDS011;8121;51.418;6.998;2023-08-12T21:15:56;1.60;;;1.40;;
16033;SDS011;8121;51.418;6.998;2023-08-12T21:20:58;2.13;;;1.23;;
16033;SDS011;8121;51.418;6.998;2023-08-12T21:26:01;1.30;;;1.00;;
16033;SDS011;8121;51.418;6.998;2023-08-12T21:31:02;1.20;;;1.10;;
16033;SDS011;8121;51.418;6.998;2023-08-12T21:36:04;1.20;;;1.10;;
16033;SDS011;8121;51.418;6.998;2023-08-12T21:41:08;1.73;;;0.87;;
16033;SDS011;8121;51.418;6.998;2023-08-12T21:46:09;1.10;;;1.00;;
16033;SDS011;8121;51.418;6.998;2023-08-12T21:51:11;1.77;;;0.90;;
16033;SDS011;8121;51.418;6.998;2023-08-12T21:56:15;1.57;;;1.20;;
16033;SDS011;8121;51.418;6.998;2023-08-12T22:01:17;1.07;;;0.97;;
16033;SDS011;8121;51.418;6.998;2023-08-12T22:06:18;1.00;;;0.90;;
16033;SDS011;8121;51.418;6.998;2023-08-12T22:11:21;3.00;;;1.67;;
16033;SDS011;8121;51.418;6.998;2023-08-12T22:16:23;1.73;;;1.20;;
16033;SDS011;8121;51.418;6.998;2023-08-12T22:21:24;1.20;;;1.10;;
16033;SDS011;8121;51.418;6.998;2023-08-12T22:26:28;2.00;;;1.10;;
16033;SDS011;8121;51.418;6.998;2023-08-12T22:31:29;1.43;;;1.33;;
16033;SDS011;8121;51.418;6.998;2023-08-12T22:36:31;1.30;;;1.20;;
16033;SDS011;8121;51.418;6.998;2023-08-12T22:41:34;2.00;;;1.27;;
16033;SDS011;8121;51.418;6.998;2023-08-12T22:46:35;2.80;;;1.50;;
16033;SDS011;8121;51.418;6.998;2023-08-12T22:51:37;2.60;;;1.53;;
16033;SDS011;8121;51.418;6.998;2023-08-12T22:56:39;2.90;;;1.30;;
16033;SDS011;8121;51.418;6.998;2023-08-12T23:01:42;1.07;;;0.97;;
16033;SDS011;8121;51.418;6.998;2023-08-12T23:06:43;1.23;;;1.13;;
16033;SDS011;8121;51.418;6.998;2023-08-12T23:11:46;2.10;;;0.90;;
16033;SDS011;8121;51.418;6.998;2023-08-12T23:16:47;1.10;;;1.00;;
16033;SDS011;8121;51.418;6.998;2023-08-12T23:21:49;2.43;;;1.17;;
16033;SDS011;8121;51.418;6.998;2023-08-12T23:26:52;2.80;;;1.90;;
16033;SDS011;8121;51.418;6.998;2023-08-12T23:31:53;1.30;;;0.90;;
16033;SDS011;8121;51.418;6.998;2023-08-12T23:36:55;1.93;;;1.23;;
16033;SDS011;8121;51.418;6.998;2023-08-12T23:41:58;1.87;;;1.53;;
16033;SDS011;8121;51.418;6.998;2023-08-12T23:46:59;3.27;;;1.10;;
16033;SDS011;8121;51.418;6.998;2023-08-12T23:52:01;2.50;;;1.50;;
16033;SDS011;8121;51.418;6.998;2023-08-12T23:57:04;2.23;;;1.00;;
